Time;durP1;ratioP1;P1;durP2;ratioP2;P2;SDS_P1;SDS_P2;PMS_P1;PMS_P2;Temp;Humidity;BMP_temperature;BMP_pressure;BME280_temperature;BME280_humidity;BME280_pressure;Samples;Min_cycle;Max_cycle;Signal;HPM_P1;HPM_P2
2022/10/29 00:02:14;;;;;;;;;;;18.90;91.70;;;19.33;57.10;99402.00;4957511;28;120220;-76
2022/10/29 00:04:40;;;;;;;;;;;18.90;91.80;;;19.32;56.95;99403.16;4953688;28;120053;-77
2022/10/29 00:07:07;;;;;;;;;;;18.90;91.80;;;19.29;57.19;99399.09;4955171;28;124663;-76
2022/10/29 00:09:34;;;;;;;;;;;18.90;91.80;;;19.26;57.25;99402.59;4949631;28;123786;-77
2022/10/29 00:12:00;;;;;;;;;;;18.90;91.80;;;19.24;57.17;99401.34;4953141;28;119810;-77
2022/10/29 00:14:27;;;;;;;;;;;18.80;91.80;;;19.20;57.09;99395.59;4951985;28;118863;-76
2022/10/29 00:16:55;;;;;;;;;;;18.80;91.80;;;19.17;57.14;99401.94;4955513;28;124566;-76
2022/10/29 00:19:23;;;;;;;;;;;18.80;91.90;;;19.14;57.30;99394.25;4947180;28;124289;-76
2022/10/29 00:21:50;;;;;;;;;;;18.70;91.80;;;19.11;57.53;99395.75;4948793;28;119407;-76
2022/10/29 00:24:16;;;;;;;;;;;18.70;91.90;;;19.09;57.52;99391.69;4957415;28;119379;-76
2022/10/29 00:26:42;;;;;;;;;;;18.70;91.90;;;19.06;57.53;99386.78;4953820;28;124146;-76
2022/10/29 00:29:09;;;;;;;;;;;18.70;92.00;;;19.05;57.42;99387.94;4961797;28;124530;-78
2022/10/29 00:31:35;;;;;;;;;;;18.60;92.00;;;19.02;57.46;99383.91;4955105;28;119444;-76
2022/10/29 00:34:01;;;;;;;;;;;18.60;92.00;;;19.00;57.51;99399.44;4947989;28;118745;-77
2022/10/29 00:36:29;;;;;;;;;;;18.60;92.00;;;18.98;57.57;99394.97;4949005;28;124195;-76
2022/10/29 00:38:55;;;;;;;;;;;18.60;92.00;;;18.98;57.29;99406.19;4952485;28;124086;-79
2022/10/29 00:41:25;;;;;;;;;;;18.60;92.10;;;18.95;57.45;99401.28;4948955;28;119584;-76
2022/10/29 00:44:14;;;;;;;;;;;18.50;92.10;;;18.92;57.48;99399.19;4955367;28;118895;-77
2022/10/29 00:46:44;;;;;;;;;;;18.50;92.10;;;18.89;57.41;99391.50;4954531;28;124241;-77
2022/10/29 00:49:11;;;;;;;;;;;18.50;92.10;;;18.87;57.50;99393.84;4947245;28;124653;-76
2022/10/29 00:51:37;;;;;;;;;;;18.50;92.10;;;18.83;57.67;99395.69;4945790;28;121063;-76
2022/10/29 00:54:07;;;;;;;;;;;18.40;92.10;;;18.81;57.67;99391.66;4948296;28;119733;-76
2022/10/29 00:56:55;;;;;;;;;;;18.40;92.10;;;18.78;57.64;99395.97;4958480;28;124521;-78
2022/10/29 00:59:21;;;;;;;;;;;18.40;92.10;;;18.76;57.71;99392.69;4963213;28;124008;-77
2022/10/29 01:01:47;;;;;;;;;;;18.40;92.20;;;18.74;57.64;99395.84;4960001;28;119897;-78
2022/10/29 01:04:15;;;;;;;;;;;18.30;92.10;;;18.73;57.80;99393.38;4947466;28;117713;-78
2022/10/29 01:06:42;;;;;;;;;;;18.30;92.10;;;18.72;57.84;99398.13;4952357;28;125047;-76
2022/10/29 01:09:09;;;;;;;;;;;18.30;92.20;;;18.71;57.64;99395.72;4961143;28;123933;-75
2022/10/29 01:11:56;;;;;;;;;;;18.30;92.20;;;18.70;57.68;99400.50;4953771;28;117583;-77
2022/10/29 01:14:26;;;;;;;;;;;18.30;92.20;;;18.68;57.86;99402.03;4960165;28;118920;-81
2022/10/29 01:17:16;;;;;;;;;;;18.00;92.10;;;18.67;57.90;99394.78;4964701;28;124576;-77
2022/10/29 01:20:06;;;;;;;;;;;18.20;92.20;;;18.63;57.90;99391.06;4961933;28;124843;-78
2022/10/29 01:23:03;;;;;;;;;;;18.20;92.30;;;18.63;58.08;99382.66;4954548;28;119193;-76
2022/10/29 01:25:53;;;;;;;;;;;18.20;92.30;;;18.59;57.95;99381.72;4951080;28;118953;-76
2022/10/29 01:28:34;;;;;;;;;;;18.20;92.40;;;18.58;57.94;99385.69;4959541;28;124591;-77
2022/10/29 01:31:07;;;;;;;;;;;18.20;92.30;;;18.55;57.95;99371.22;4964836;28;124180;-77
2022/10/29 01:33:40;;;;;;;;;;;18.20;92.30;;;18.55;58.00;99376.84;4964633;28;119264;-77
2022/10/29 01:36:15;;;;;;;;;;;18.10;92.30;;;18.54;57.91;99374.41;4960332;28;118609;-80
2022/10/29 01:38:50;;;;;;;;;;;18.10;92.30;;;18.54;57.87;99372.41;4962746;28;124600;-81
2022/10/29 01:41:36;;;;;;;;;;;18.10;92.30;;;18.54;57.80;99366.81;4945777;28;123917;-79
2022/10/29 01:44:11;;;;;;;;;;;18.10;92.30;;;18.54;57.88;99374.41;4953656;28;120384;-78
2022/10/29 01:46:43;;;;;;;;;;;18.10;92.40;;;18.54;58.03;99366.00;4966877;28;119010;-79
2022/10/29 01:49:25;;;;;;;;;;;18.10;92.40;;;18.54;58.08;99368.81;4948307;28;123387;-79
2022/10/29 01:51:53;;;;;;;;;;;18.10;92.40;;;18.53;58.19;99362.38;4958345;28;123732;-77
2022/10/29 01:54:20;;;;;;;;;;;18.10;92.40;;;18.52;58.06;99366.34;4951565;28;119556;-80
2022/10/29 01:56:54;;;;;;;;;;;18.10;92.50;;;18.53;58.11;99359.56;4959793;28;118499;-77
2022/10/29 01:59:22;;;;;;;;;;;18.10;92.50;;;18.52;58.15;99365.53;4960525;28;124268;-77
2022/10/29 02:02:04;;;;;;;;;;;18.10;92.50;;;18.50;58.11;99351.88;4959268;28;123310;-76
2022/10/29 02:04:49;;;;;;;;;;;18.10;92.50;;;18.48;58.25;99347.81;4958870;28;120987;-76
2022/10/29 02:07:35;;;;;;;;;;;18.10;92.50;;;18.46;58.28;99350.16;4966904;28;119087;-79
2022/10/29 02:10:25;;;;;;;;;;;18.00;92.50;;;18.43;58.18;99351.69;4961556;28;124118;-76
2022/10/29 02:12:53;;;;;;;;;;;18.00;92.50;;;18.43;58.30;99357.28;4958566;28;125675;-78
2022/10/29 02:15:35;;;;;;;;;;;18.00;92.50;;;18.44;58.16;99347.69;4964090;28;119984;-79
2022/10/29 02:18:03;;;;;;;;;;;18.00;92.60;;;18.44;58.29;99344.09;4949435;28;117971;-78
2022/10/29 02:20:30;;;;;;;;;;;18.00;92.60;;;18.43;58.16;99342.44;4949681;28;123505;-80
2022/10/29 02:22:57;;;;;;;;;;;18.00;92.60;;;18.43;58.28;99332.09;4964077;28;121878;-81
2022/10/29 02:25:24;;;;;;;;;;;18.00;92.60;;;18.44;58.25;99324.50;4948694;28;118737;-81
2022/10/29 02:27:50;;;;;;;;;;;18.00;92.60;;;18.43;58.28;99323.69;4958674;28;117871;-81
2022/10/29 02:30:17;;;;;;;;;;;17.90;92.60;;;18.42;58.31;99326.84;4958315;28;124115;-80
2022/10/29 02:32:43;;;;;;;;;;;18.00;92.70;;;18.40;58.36;99323.56;4956371;28;124656;-81
2022/10/29 02:35:10;;;;;;;;;;;17.90;92.60;;;18.39;58.36;99322.75;4955488;28;121036;-76
2022/10/29 02:37:37;;;;;;;;;;;17.90;92.70;;;18.40;58.39;99321.56;4943642;28;118601;-76
2022/10/29 02:40:03;;;;;;;;;;;17.90;92.70;;;18.40;58.57;99323.56;4965101;28;124279;-77
2022/10/29 02:42:30;;;;;;;;;;;17.90;92.70;;;18.41;58.47;99319.63;4960601;28;123656;-76
2022/10/29 02:44:56;;;;;;;;;;;17.90;92.70;;;18.41;58.22;99319.63;4957070;28;118347;-76
2022/10/29 02:47:22;;;;;;;;;;;17.90;92.70;;;18.40;58.47;99313.19;4956974;28;118771;-76
2022/10/29 02:49:49;;;;;;;;;;;17.90;92.70;;;18.41;58.44;99320.44;4963626;28;125663;-76
2022/10/29 02:52:15;;;;;;;;;;;17.90;92.70;;;18.41;58.42;99314.84;4960579;28;123869;-76
2022/10/29 02:54:41;;;;;;;;;;;17.90;92.70;;;18.43;58.42;99311.66;4955403;28;119482;-75
2022/10/29 02:57:08;;;;;;;;;;;17.90;92.80;;;18.44;58.48;99316.13;4964061;28;119911;-76
2022/10/29 02:59:34;;;;;;;;;;;17.90;92.80;;;18.43;58.51;99304.09;4956201;28;124529;-76
2022/10/29 03:02:35;;;;;;;;;;;17.90;92.80;;;18.43;58.37;99309.72;4961795;28;124041;-76
2022/10/29 03:05:02;;;;;;;;;;;17.90;92.80;;;18.42;58.30;99310.03;4959543;28;119403;-76
2022/10/29 03:07:28;;;;;;;;;;;18.00;92.80;;;18.39;58.22;99305.97;4952873;28;118751;-78
2022/10/29 03:09:55;;;;;;;;;;;17.90;92.70;;;18.37;58.43;99308.28;4967939;28;124567;-76
2022/10/29 03:12:21;;;;;;;;;;;17.90;92.80;;;18.37;58.39;99302.69;4967064;28;123940;-77
2022/10/29 03:14:48;;;;;;;;;;;17.90;92.80;;;18.35;58.56;99304.22;4966658;28;119561;-76
2022/10/29 03:34:07;;;;;;;;;;;17.70;93.00;;;18.17;59.03;99320.47;4964539;28;125020;-77
2022/10/29 03:36:34;;;;;;;;;;;18.90;93.60;;;18.16;59.18;99321.59;4956263;28;123633;-76
2022/10/29 03:39:00;;;;;;;;;;;17.70;93.10;;;18.16;59.04;99319.66;4954518;28;119429;-75
2022/10/29 03:41:26;;;;;;;;;;;17.70;93.20;;;18.17;59.26;99315.69;4965996;28;118482;-76
2022/10/29 03:43:53;;;;;;;;;;;17.70;93.20;;;18.18;59.06;99313.69;4964225;28;124091;-76
2022/10/29 03:46:19;;;;;;;;;;;17.70;93.20;;;18.19;59.18;99313.34;4961305;28;123816;-76
2022/10/29 03:48:48;;;;;;;;;;;17.70;93.20;;;18.21;59.30;99312.97;4968126;28;118493;-76
2022/10/29 03:51:14;;;;;;;;;;;17.70;93.20;;;18.22;59.14;99309.03;4962031;28;119267;-76
2022/10/29 03:53:41;;;;;;;;;;;17.70;93.30;;;18.21;59.19;99311.00;4967280;28;124134;-77
2022/10/29 03:56:08;;;;;;;;;;;17.80;93.30;;;18.22;59.24;99317.44;4961759;28;123911;-76
2022/10/29 03:58:35;;;;;;;;;;;17.80;93.30;;;18.23;59.37;99311.47;4957177;28;119621;-76
2022/10/29 04:01:04;;;;;;;;;;;17.70;93.30;;;18.24;59.30;99312.28;4955979;28;118981;-76
2022/10/29 04:03:31;;;;;;;;;;;17.80;93.40;;;18.22;59.23;99309.03;4968586;28;124275;-77
2022/10/29 04:05:59;;;;;;;;;;;17.70;93.30;;;18.22;59.23;99315.44;4965349;28;124059;-76
2022/10/29 04:08:26;;;;;;;;;;;17.70;93.40;;;18.23;59.23;99317.06;4960170;28;120594;-75
2022/10/29 04:10:52;;;;;;;;;;;17.70;93.40;;;18.23;59.35;99313.47;4944654;28;117406;-76
2022/10/29 04:13:19;;;;;;;;;;;17.80;93.40;;;18.23;59.36;99313.47;4959684;28;124455;-77
2022/10/29 04:15:45;;;;;;;;;;;17.70;93.40;;;18.22;59.09;99318.25;4965127;28;124660;-76
2022/10/29 04:18:12;;;;;;;;;;;17.80;93.40;;;18.21;59.37;99312.97;4953851;28;120295;-75
2022/10/29 04:20:39;;;;;;;;;;;17.70;93.40;;;18.19;59.41;99318.94;4964118;28;120330;-75
2022/10/29 04:23:05;;;;;;;;;;;17.70;93.40;;;18.18;59.49;99314.50;4959602;28;123687;-75
2022/10/29 04:25:32;;;;;;;;;;;17.70;93.50;;;18.19;59.28;99320.91;4950622;28;123629;-75
2022/10/29 04:27:58;;;;;;;;;;;17.70;93.50;;;18.19;59.42;99323.69;4967837;28;119300;-76
2022/10/29 04:30:24;;;;;;;;;;;17.70;93.50;;;18.19;59.57;99307.75;4956636;28;119496;-75
2022/10/29 04:32:55;;;;;;;;;;;17.70;93.50;;;18.19;59.46;99312.50;4966759;28;124623;-78
2022/10/29 04:35:21;;;;;;;;;;;17.70;93.50;;;18.18;59.54;99310.88;4962010;28;123605;-79
2022/10/29 04:37:47;;;;;;;;;;;17.70;93.50;;;18.18;59.49;99306.09;4955146;28;119195;-75
2022/10/29 04:40:13;;;;;;;;;;;17.70;93.50;;;18.18;59.61;99308.09;4962843;28;118241;-75
2022/10/29 04:42:40;;;;;;;;;;;17.70;93.60;;;18.19;59.66;99315.31;4968101;28;124365;-74
2022/10/29 04:45:07;;;;;;;;;;;17.70;93.60;;;18.18;59.45;99316.47;4954231;28;123172;-75
2022/10/29 04:47:33;;;;;;;;;;;17.70;93.60;;;18.17;59.63;99314.88;4967978;28;119160;-76
2022/10/29 04:49:59;;;;;;;;;;;17.70;93.60;;;18.17;59.70;99320.47;4956038;28;118775;-76
2022/10/29 04:52:27;;;;;;;;;;;17.70;93.60;;;18.15;59.60;99303.22;4963103;28;124390;-77
2022/10/29 04:54:53;;;;;;;;;;;17.70;93.70;;;18.15;59.52;99322.78;4967121;28;124658;-75
2022/10/29 04:57:19;;;;;;;;;;;17.70;93.70;;;18.12;59.51;99312.31;4962649;28;119405;-75
2022/10/29 04:59:45;;;;;;;;;;;17.70;93.70;;;18.07;59.67;99305.75;4966232;28;118717;-75
2022/10/29 05:02:12;;;;;;;;;;;17.60;93.70;;;18.04;59.82;99309.25;4959196;28;124118;-76
2022/10/29 05:04:38;;;;;;;;;;;17.60;93.70;;;18.03;59.65;99321.63;4958682;28;124074;-75
2022/10/29 05:07:04;;;;;;;;;;;17.60;93.70;;;18.03;59.79;99318.03;4967180;28;120384;-75
2022/10/29 05:09:31;;;;;;;;;;;17.60;93.70;;;18.03;59.72;99320.81;4976536;28;119625;-75
2022/10/29 05:11:57;;;;;;;;;;;17.60;93.70;;;18.01;59.84;99317.53;4965583;28;124141;-76
2022/10/29 05:14:23;;;;;;;;;;;17.60;93.70;;;17.99;59.61;99320.69;4956035;28;124571;-76
2022/10/29 05:16:50;;;;;;;;;;;17.50;93.60;;;17.98;59.86;99315.47;4958485;28;119778;-76
2022/10/29 05:19:16;;;;;;;;;;;17.50;93.70;;;17.96;59.90;99315.78;4961097;28;118629;-77
2022/10/29 05:21:42;;;;;;;;;;;17.50;93.70;;;17.94;59.86;99312.53;4960812;28;125048;-76
2022/10/29 05:24:08;;;;;;;;;;;17.50;93.70;;;17.92;59.79;99317.66;4964585;28;124359;-75
2022/10/29 05:26:35;;;;;;;;;;;17.50;93.70;;;17.91;59.91;99313.22;4955883;28;118542;-76
2022/10/29 05:29:01;;;;;;;;;;;17.50;93.70;;;17.88;59.78;99309.16;4948613;28;117746;-76
2022/10/29 05:31:27;;;;;;;;;;;17.40;93.70;;;17.86;59.92;99310.66;4964795;28;124544;-76
2022/10/29 05:33:54;;;;;;;;;;;17.40;93.70;;;17.84;59.84;99313.00;4963036;28;123747;-76
2022/10/29 05:36:20;;;;;;;;;;;17.40;93.70;;;17.83;59.98;99319.75;4951973;28;119345;-77
2022/10/29 05:38:46;;;;;;;;;;;17.40;93.70;;;17.82;59.99;99315.31;4946636;28;118818;-76
2022/10/29 05:41:12;;;;;;;;;;;17.40;93.70;;;17.81;60.01;99313.69;4951985;28;124111;-75
2022/10/29 05:43:39;;;;;;;;;;;17.40;93.80;;;17.78;59.85;99315.16;4955174;28;124528;-77
2022/10/29 05:46:05;;;;;;;;;;;17.40;93.80;;;17.76;59.96;99311.06;4948731;28;119278;-78
2022/10/29 05:48:31;;;;;;;;;;;17.30;93.70;;;17.76;59.88;99311.06;4948665;28;118965;-76
2022/10/29 05:50:58;;;;;;;;;;;17.30;93.80;;;17.74;59.98;99307.84;4947599;28;124104;-77
2022/10/29 05:53:24;;;;;;;;;;;17.30;93.80;;;17.72;60.05;99310.97;4947419;28;123909;-77
2022/10/29 05:55:50;;;;;;;;;;;17.30;93.80;;;17.70;60.03;99307.69;4947667;28;120426;-77
2022/10/29 05:58:17;;;;;;;;;;;17.30;93.80;;;17.70;60.06;99318.88;4950713;28;119841;-77
2022/10/29 06:00:44;;;;;;;;;;;17.20;93.80;;;17.67;60.01;99314.78;4945357;28;124689;-77
2022/10/29 06:03:17;;;;;;;;;;;17.20;93.80;;;17.66;60.05;99327.16;4950627;28;124686;-82
2022/10/29 06:05:45;;;;;;;;;;;17.20;93.80;;;17.63;60.18;99322.25;4949446;28;119746;-81
2022/10/29 06:08:11;;;;;;;;;;;17.20;93.90;;;17.64;60.19;99331.44;4947293;28;118879;-81
2022/10/29 06:10:38;;;;;;;;;;;17.20;93.90;;;17.62;60.30;99323.44;4960049;28;125924;-77
2022/10/29 06:13:12;;;;;;;;;;;17.20;93.90;;;17.62;60.72;99325.38;4955875;28;124605;-77
2022/10/29 06:15:38;;;;;;;;;;;17.20;94.10;;;17.62;60.44;99328.19;4956652;28;120049;-76
2022/10/29 06:18:05;;;;;;;;;;;17.10;94.10;;;17.61;60.47;99324.56;4963749;28;118031;-78
2022/10/29 06:20:31;;;;;;;;;;;17.20;94.10;;;17.60;60.46;99322.94;4944201;28;122728;-77
2022/10/29 06:22:58;;;;;;;;;;;17.20;94.10;;;17.57;60.43;99326.44;4959568;28;124598;-78
2022/10/29 06:25:25;;;;;;;;;;;17.20;94.10;;;17.57;60.47;99325.59;4952846;28;119214;-77
2022/10/29 06:28:02;;;;;;;;;;;17.10;94.00;;;17.55;60.12;99325.16;4940870;28;120513;-76
2022/10/29 06:30:30;;;;;;;;;;;17.10;94.00;;;17.53;60.36;99330.28;4954345;28;124226;-77
2022/10/29 06:32:57;;;;;;;;;;;17.10;94.00;;;17.51;60.58;99327.81;4961012;28;123668;-76
2022/10/29 06:35:24;;;;;;;;;;;17.10;94.10;;;17.50;60.53;99331.78;4958560;28;120047;-81
2022/10/29 06:37:50;;;;;;;;;;;17.10;94.10;;;17.49;60.63;99332.94;4959429;28;120355;-77
2022/10/29 06:40:16;;;;;;;;;;;17.10;94.20;;;17.49;60.69;99321.78;4951055;28;124269;-77
2022/10/29 06:42:43;;;;;;;;;;;16.60;94.00;;;17.50;60.72;99326.19;4963769;28;123938;-77
2022/10/29 06:45:09;;;;;;;;;;;17.00;94.20;;;17.51;60.71;99332.59;4960113;28;119683;-77
2022/10/29 06:47:39;;;;;;;;;;;17.00;94.20;;;17.52;60.90;99320.28;4960364;28;119875;-77
2022/10/29 06:50:10;;;;;;;;;;;17.00;94.30;;;17.53;60.80;99330.28;4952743;28;124242;-80
2022/10/29 06:52:36;;;;;;;;;;;17.00;94.30;;;17.55;60.95;99328.75;4957625;28;123516;-77
2022/10/29 06:55:06;;;;;;;;;;;17.00;94.40;;;17.57;60.98;99331.19;4962219;28;119566;-80
2022/10/29 06:57:40;;;;;;;;;;;17.10;94.40;;;17.57;60.90;99320.84;4954248;28;119366;-79
2022/10/29 07:00:07;;;;;;;;;;;17.10;94.50;;;17.60;60.93;99330.53;4963873;28;123918;-77
2022/10/29 07:02:33;;;;;;;;;;;17.10;94.50;;;17.62;61.09;99333.78;4955305;28;123732;-77
2022/10/29 07:05:00;;;;;;;;;;;17.10;94.50;;;17.64;60.99;99332.25;4949774;28;119458;-81
2022/10/29 07:07:27;;;;;;;;;;;17.10;94.60;;;17.69;60.89;99334.03;4960943;28;118515;-78
2022/10/29 07:09:53;;;;;;;;;;;17.20;94.60;;;17.72;60.68;99322.16;4965305;28;124193;-78
2022/10/29 07:12:19;;;;;;;;;;;17.20;94.60;;;17.75;60.66;99329.84;4962805;28;123968;-79
2022/10/29 07:14:46;;;;;;;;;;;17.20;94.50;;;17.79;60.96;99325.22;4955511;28;119839;-78
2022/10/29 07:17:12;;;;;;;;;;;17.20;94.60;;;17.83;61.06;99334.53;4954420;28;119131;-80
2022/10/29 07:19:38;;;;;;;;;;;17.30;94.80;;;17.87;61.29;99334.66;4955607;28;124803;-80
2022/10/29 07:22:05;;;;;;;;;;;17.30;94.90;;;17.90;60.99;99335.97;4960047;28;123001;-76
2022/10/29 07:24:31;;;;;;;;;;;17.30;94.90;;;17.92;60.90;99331.66;4952860;28;119753;-78
2022/10/29 07:26:57;;;;;;;;;;;17.30;94.80;;;17.95;60.75;99336.53;4952641;28;118200;-77
2022/10/29 07:29:24;;;;;;;;;;;17.30;94.70;;;17.97;60.72;99339.78;4963438;28;124568;-78
2022/10/29 07:31:50;;;;;;;;;;;17.30;94.70;;;18.00;60.50;99339.09;4963579;28;124367;-77
2022/10/29 07:34:17;;;;;;;;;;;17.40;94.70;;;18.01;60.41;99337.94;4962466;28;120910;-77
2022/10/29 07:36:43;;;;;;;;;;;15.90;93.90;;;18.03;60.19;99345.97;4961797;28;118677;-76
2022/10/29 07:39:09;;;;;;;;;;;17.40;94.50;;;18.05;60.21;99341.69;4952161;28;123361;-78
2022/10/29 07:41:36;;;;;;;;;;;17.50;94.50;;;18.09;60.01;99345.38;4960089;28;125696;-79
2022/10/29 07:44:02;;;;;;;;;;;17.50;94.50;;;18.13;60.10;99344.69;4954690;28;119377;-78
2022/10/29 07:46:28;;;;;;;;;;;17.50;94.50;;;18.18;60.20;99345.25;4956951;28;119764;-84
2022/10/29 07:48:54;;;;;;;;;;;17.60;94.50;;;18.23;60.00;99352.63;4961384;28;123371;-77
2022/10/29 07:51:22;;;;;;;;;;;17.60;94.50;;;18.27;59.97;99353.56;4949364;28;124122;-80
2022/10/29 07:53:48;;;;;;;;;;;17.60;94.50;;;18.29;59.97;99356.81;4964585;28;118403;-76
2022/10/29 07:56:14;;;;;;;;;;;17.70;94.50;;;18.32;59.92;99350.50;4961279;28;118777;-76
2022/10/29 07:58:44;;;;;;;;;;;17.70;94.50;;;18.36;59.87;99350.63;4952520;28;124662;-78
2022/10/29 08:01:10;;;;;;;;;;;17.70;94.50;;;18.40;59.86;99357.94;4948003;28;123970;-79
2022/10/29 08:03:37;;;;;;;;;;;17.80;94.50;;;18.41;59.28;99356.81;4949367;28;120017;-79
2022/10/29 08:06:03;;;;;;;;;;;17.70;94.40;;;18.46;59.72;99352.97;4951685;28;118619;-88
2022/10/29 08:08:30;;;;;;;;;;;17.80;94.50;;;18.52;59.84;99354.34;4960832;28;124253;-77
2022/10/29 08:11:00;;;;;;;;;;;17.90;94.60;;;18.60;59.70;99355.38;4962985;28;123627;-78
2022/10/29 08:13:27;;;;;;;;;;;17.90;94.50;;;18.68;59.46;99351.63;4948286;28;119427;-77
2022/10/29 08:15:53;;;;;;;;;;;18.00;94.50;;;18.74;59.12;99358.59;4957314;28;120308;-76
2022/10/29 08:18:20;;;;;;;;;;;18.00;94.20;;;18.77;58.66;99344.75;4946374;28;124243;-77
2022/10/29 08:20:46;;;;;;;;;;;18.10;94.10;;;18.82;58.71;99345.69;4963301;28;124843;-77
2022/10/29 08:23:13;;;;;;;;;;;18.10;94.00;;;18.87;58.60;99346.25;4957900;28;120371;-74
2022/10/29 08:25:41;;;;;;;;;;;18.20;94.00;;;18.91;58.14;99349.13;4960953;28;120474;-76
2022/10/29 08:28:11;;;;;;;;;;;18.20;93.90;;;18.96;57.94;99348.88;4962919;28;123362;-76
2022/10/29 08:30:37;;;;;;;;;;;18.30;93.80;;;19.02;57.85;99347.50;4961772;28;123794;-76
2022/10/29 08:33:04;;;;;;;;;;;18.30;93.70;;;19.08;57.66;99348.06;4960596;28;119467;-76
2022/10/29 08:35:31;;;;;;;;;;;18.40;93.60;;;19.12;57.51;99348.94;4962105;28;118754;-77
2022/10/29 08:37:57;;;;;;;;;;;18.40;93.50;;;19.16;57.48;99353.50;4942646;28;124516;-77
2022/10/29 08:40:27;;;;;;;;;;;18.50;93.50;;;19.18;57.32;99344.72;4959152;28;124106;-79
2022/10/29 08:43:15;;;;;;;;;;;18.50;93.40;;;19.23;57.39;99338.06;4959522;28;119442;-77
2022/10/29 08:45:49;;;;;;;;;;;18.60;93.40;;;19.26;57.64;99338.13;4962322;28;118780;-77
2022/10/29 08:48:30;;;;;;;;;;;18.60;93.40;;;19.32;57.33;99342.34;4954611;28;123143;-76
2022/10/29 08:51:22;;;;;;;;;;;18.70;93.40;;;19.38;57.30;99343.69;4958682;28;124673;-76
2022/10/29 08:53:50;;;;;;;;;;;18.70;93.30;;;19.46;57.36;99352.31;4950529;28;121971;-76
2022/10/29 08:56:24;;;;;;;;;;;18.80;93.30;;;19.53;57.08;99341.28;4961104;28;117602;-77
2022/10/29 08:59:18;;;;;;;;;;;18.90;93.30;;;19.58;56.66;99332.59;4959060;28;124162;-77
2022/10/29 09:01:44;;;;;;;;;;;18.90;93.10;;;19.64;56.89;99339.59;4948541;28;123440;-76
2022/10/29 09:04:46;;;;;;;;;;;19.00;93.10;;;19.68;56.75;99334.91;4948542;28;118641;-76
2022/10/29 09:07:16;;;;;;;;;;;19.10;93.10;;;19.75;56.36;99337.91;4955377;28;119052;-76
2022/10/29 09:09:58;;;;;;;;;;;18.70;92.90;;;19.79;56.32;99338.81;4961452;28;123463;-77
2022/10/29 09:12:49;;;;;;;;;;;19.20;93.00;;;19.83;56.26;99336.91;4954795;28;124416;-80
2022/10/29 09:15:45;;;;;;;;;;;19.20;92.90;;;19.89;56.22;99331.03;4961486;28;120549;-80
2022/10/29 09:18:26;;;;;;;;;;;19.30;92.90;;;19.95;56.04;99336.00;4934897;28;119931;-78
2022/10/29 09:21:11;;;;;;;;;;;19.30;92.90;;;19.99;55.91;99341.72;4933673;28;125883;-76
2022/10/29 09:23:52;;;;;;;;;;;19.40;92.80;;;20.02;55.90;99327.78;4935326;28;123862;-76
2022/10/29 09:26:28;;;;;;;;;;;19.40;92.70;;;20.08;55.60;99328.31;4924906;28;119518;-76
2022/10/29 09:29:29;;;;;;;;;;;19.50;92.60;;;20.08;55.30;99326.31;4931062;28;118772;-78
2022/10/29 09:31:59;;;;;;;;;;;19.50;92.50;;;20.13;55.54;99325.25;4932197;28;124177;-80
2022/10/29 09:34:43;;;;;;;;;;;19.50;92.40;;;20.17;55.20;99320.50;4928240;28;124296;-79
2022/10/29 09:37:16;;;;;;;;;;;19.60;92.30;;;20.23;55.07;99318.22;4935713;28;119329;-76
2022/10/29 09:39:46;;;;;;;;;;;19.70;92.20;;;20.30;55.03;99319.22;4931572;28;118732;-76
2022/10/29 09:42:22;;;;;;;;;;;19.70;92.20;;;20.38;55.23;99316.59;4939986;28;124177;-76
2022/10/29 09:44:54;;;;;;;;;;;19.80;92.10;;;20.44;54.85;99315.94;4910793;28;123632;-77
2022/10/29 09:47:45;;;;;;;;;;;19.80;92.10;;;20.52;54.78;99314.94;4919999;28;119230;-77
2022/10/29 09:50:19;;;;;;;;;;;19.90;92.00;;;20.59;54.38;99308.69;4922309;28;119313;-75
2022/10/29 09:52:47;;;;;;;;;;;20.00;92.00;;;20.66;54.28;99311.66;4922253;28;124244;-75
2022/10/29 09:55:21;;;;;;;;;;;20.10;91.90;;;20.76;54.37;99313.06;4929996;28;123639;-76
2022/10/29 09:57:48;;;;;;;;;;;20.10;91.80;;;20.85;54.21;99307.25;4947468;28;119432;-79
2022/10/29 10:00:22;;;;;;;;;;;20.30;91.80;;;20.95;54.14;99310.28;4948290;28;119027;-78
2022/10/29 10:03:02;;;;;;;;;;;20.30;91.80;;;21.06;53.95;99304.84;4959136;28;125671;-79
2022/10/29 10:05:31;;;;;;;;;;;20.50;91.80;;;21.16;53.50;99298.63;4956339;28;123923;-77
2022/10/29 10:08:13;;;;;;;;;;;20.60;91.70;;;21.28;53.04;99302.47;4948120;28;120290;-77
2022/10/29 10:10:52;;;;;;;;;;;20.60;91.40;;;21.40;52.87;99302.34;4953006;28;119649;-79
2022/10/29 10:13:24;;;;;;;;;;;20.80;91.40;;;21.50;52.48;99290.47;4960638;28;123340;-76
2022/10/29 10:15:58;;;;;;;;;;;20.90;91.20;;;21.62;52.56;99295.09;4965448;28;124197;-74
2022/10/29 10:18:32;;;;;;;;;;;21.00;91.10;;;21.73;52.44;99286.84;4958019;28;119425;-77
2022/10/29 10:21:08;;;;;;;;;;;21.10;91.00;;;21.86;51.81;99288.28;4951677;28;118964;-75
2022/10/29 10:23:46;;;;;;;;;;;21.20;90.90;;;21.99;51.56;99286.88;4950426;28;124729;-74
2022/10/29 10:26:41;;;;;;;;;;;21.30;90.70;;;22.13;51.06;99288.31;4957174;28;124655;-75
2022/10/29 10:29:13;;;;;;;;;;;21.50;90.50;;;22.25;50.84;99279.69;4948579;28;119840;-75
2022/10/29 10:31:55;;;;;;;;;;;21.60;90.40;;;22.40;50.76;99280.69;4946542;28;118830;-76
2022/10/29 10:34:22;;;;;;;;;;;21.70;90.30;;;22.55;50.30;99276.09;4957581;28;124473;-77
2022/10/29 10:37:08;;;;;;;;;;;21.90;90.20;;;22.70;50.08;99280.69;4956679;28;125307;-75
2022/10/29 10:39:43;;;;;;;;;;;22.00;90.10;;;22.85;50.07;99274.06;4944746;28;119573;-76
2022/10/29 10:42:24;;;;;;;;;;;22.20;90.00;;;23.01;49.68;99273.09;4949831;28;118639;-76
2022/10/29 10:44:56;;;;;;;;;;;22.30;89.90;;;23.14;49.13;99269.59;4944155;28;124822;-76
2022/10/29 10:47:26;;;;;;;;;;;22.50;89.30;;;23.28;48.74;99263.31;4947628;28;122982;-75
2022/10/29 10:49:53;;;;;;;;;;;22.60;89.00;;;23.40;48.96;99261.41;4944522;28;119661;-76
2022/10/29 10:52:27;;;;;;;;;;;22.70;88.70;;;23.53;48.29;99254.28;4931645;28;117921;-77
2022/10/29 10:55:00;;;;;;;;;;;22.80;88.30;;;23.65;48.15;99247.56;4959783;28;123433;-78
2022/10/29 10:57:40;;;;;;;;;;;23.00;88.20;;;23.77;47.41;99244.44;4947788;28;124685;-79
2022/10/29 11:00:15;;;;;;;;;;;23.10;86.80;;;23.88;47.15;99241.72;4956428;28;120786;-77
2022/10/29 11:02:50;;;;;;;;;;;23.20;86.80;;;24.01;47.02;99249.47;4952231;28;119349;-82
2022/10/29 11:05:30;;;;;;;;;;;23.30;86.60;;;24.14;47.06;99247.16;4957050;28;124060;-76
2022/10/29 11:08:15;;;;;;;;;;;23.50;86.50;;;24.27;46.50;99241.19;4958643;28;123783;-76
2022/10/29 11:10:51;;;;;;;;;;;23.60;86.10;;;24.38;46.38;99245.69;4950829;28;120747;-76
2022/10/29 11:13:26;;;;;;;;;;;23.70;86.00;;;24.50;45.87;99236.09;4959907;28;119061;-76
2022/10/29 11:16:04;;;;;;;;;;;23.90;85.60;;;24.64;45.76;99227.69;4956097;28;124332;-76
2022/10/29 11:18:40;;;;;;;;;;;23.90;84.90;;;24.77;45.62;99224.50;4946885;28;124139;-79
2022/10/29 11:21:28;;;;;;;;;;;24.10;84.70;;;24.91;45.38;99221.75;4953754;28;119501;-76
2022/10/29 11:23:57;;;;;;;;;;;24.20;84.50;;;25.07;45.11;99222.19;4957188;28;117594;-75
2022/10/29 11:26:35;;;;;;;;;;;24.30;84.40;;;25.23;44.93;99209.72;4951158;28;124713;-75
2022/10/29 11:29:13;;;;;;;;;;;24.20;83.90;;;25.40;44.59;99213.78;4960008;28;124365;-76
2022/10/29 11:31:52;;;;;;;;;;;24.60;84.00;;;25.58;44.19;99214.63;4950692;28;119259;-77
2022/10/29 11:34:28;;;;;;;;;;;24.80;83.90;;;25.73;43.89;99212.56;4965708;28;117414;-76
2022/10/29 11:37:36;;;;;;;;;;;24.90;83.00;;;25.87;43.21;99218.28;4952140;28;124010;-76
2022/10/29 11:40:13;;;;;;;;;;;24.10;81.40;;;26.02;43.44;99204.09;4954089;28;123944;-75
2022/10/29 11:42:40;;;;;;;;;;;25.30;82.10;;;26.14;43.25;99204.47;4957850;28;119480;-74
2022/10/29 11:45:19;;;;;;;;;;;25.40;81.90;;;26.28;42.80;99206.47;4953533;28;118559;-75